Time;durP1;ratioP1;P1;durP2;ratioP2;P2;SDS_P1;SDS_P2;PMS_P1;PMS_P2;Temp;Humidity;BMP_temperature;BMP_pressure;BME280_temperature;BME280_humidity;BME280_pressure;Samples;Min_cycle;Max_cycle;Signal;HPM_P1;HPM_P2
2022/03/21 00:01:22;;;;;;;75.25;51.58;;;;;;;;;;4824731;29;20106;-76
2022/03/21 00:03:48;;;;;;;82.45;52.97;;;;;;;;;;4808535;29;20092;-79
2022/03/21 00:06:14;;;;;;;80.97;53.13;;;;;;;;;;4808338;29;20137;-76
2022/03/21 00:08:43;;;;;;;78.90;51.53;;;;;;;;;;4809688;29;20121;-82
2022/03/21 00:11:09;;;;;;;77.50;51.05;;;;;;;;;;4824520;29;20457;-77
2022/03/21 00:13:35;;;;;;;80.53;54.13;;;;;;;;;;4824697;29;20053;-78
2022/03/21 00:16:02;;;;;;;77.60;53.40;;;;;;;;;;4824682;29;20062;-77
2022/03/21 00:18:28;;;;;;;79.85;53.30;;;;;;;;;;4825207;29;20049;-76
2022/03/21 00:20:55;;;;;;;78.10;52.58;;;;;;;;;;4808953;29;20089;-81
2022/03/21 00:23:22;;;;;;;74.53;50.85;;;;;;;;;;4823966;29;20482;-80
2022/03/21 00:25:48;;;;;;;76.13;51.70;;;;;;;;;;4823723;29;20085;-77
2022/03/21 00:28:14;;;;;;;77.38;53.17;;;;;;;;;;4824151;29;20092;-83
2022/03/21 00:30:42;;;;;;;79.25;53.97;;;;;;;;;;4824070;29;20090;-78
2022/03/21 00:33:09;;;;;;;81.00;52.97;;;;;;;;;;4825473;29;20456;-78
2022/03/21 00:35:35;;;;;;;79.65;52.63;;;;;;;;;;4808772;29;20050;-77
2022/03/21 00:38:02;;;;;;;82.28;54.17;;;;;;;;;;4823682;29;20101;-78
2022/03/21 00:40:31;;;;;;;79.28;54.25;;;;;;;;;;4824543;29;20058;-77
2022/03/21 00:42:58;;;;;;;80.03;52.92;;;;;;;;;;4823674;29;20494;-82
2022/03/21 00:45:25;;;;;;;83.35;54.20;;;;;;;;;;4824065;29;20052;-77
2022/03/21 00:47:52;;;;;;;80.63;53.53;;;;;;;;;;4809728;29;20508;-77
2022/03/21 00:50:18;;;;;;;84.05;56.05;;;;;;;;;;4809499;29;20053;-77
2022/03/21 00:52:46;;;;;;;83.55;54.58;;;;;;;;;;4823531;29;20077;-86
2022/03/21 00:55:13;;;;;;;82.60;56.05;;;;;;;;;;4823603;29;20495;-83
2022/03/21 00:57:40;;;;;;;82.95;55.13;;;;;;;;;;4808490;29;20460;-78
2022/03/21 01:00:08;;;;;;;82.88;54.45;;;;;;;;;;4824057;29;20194;-77
2022/03/21 01:02:35;;;;;;;82.28;55.00;;;;;;;;;;4808621;29;20057;-85
2022/03/21 01:05:02;;;;;;;85.38;54.97;;;;;;;;;;4823041;29;20137;-75
2022/03/21 01:07:28;;;;;;;86.30;55.95;;;;;;;;;;4808327;29;20161;-74
2022/03/21 01:09:54;;;;;;;88.00;56.33;;;;;;;;;;4823648;29;20054;-75
2022/03/21 01:12:20;;;;;;;85.45;53.35;;;;;;;;;;4808766;29;20088;-74
2022/03/21 01:14:46;;;;;;;84.32;55.55;;;;;;;;;;4808071;29;20046;-76
2022/03/21 01:17:12;;;;;;;86.40;55.22;;;;;;;;;;4827136;29;20054;-74
2022/03/21 01:19:38;;;;;;;85.53;54.38;;;;;;;;;;4813331;29;20140;-74
2022/03/21 01:22:06;;;;;;;84.20;53.78;;;;;;;;;;4826923;29;20181;-74
2022/03/21 01:24:33;;;;;;;85.97;55.58;;;;;;;;;;4827951;29;20093;-74
2022/03/21 01:26:59;;;;;;;80.55;52.17;;;;;;;;;;4826381;29;20393;-74
2022/03/21 01:29:25;;;;;;;84.55;54.72;;;;;;;;;;4826772;29;20054;-74
2022/03/21 01:31:51;;;;;;;80.80;51.85;;;;;;;;;;4811324;29;20089;-74
2022/03/21 01:34:17;;;;;;;87.70;55.53;;;;;;;;;;4826624;29;20129;-77
2022/03/21 01:36:43;;;;;;;87.38;54.72;;;;;;;;;;4826411;29;20114;-74
2022/03/21 01:39:09;;;;;;;79.45;53.80;;;;;;;;;;4811196;29;20105;-74
2022/03/21 01:41:35;;;;;;;79.43;52.47;;;;;;;;;;4827182;29;20053;-74
2022/03/21 01:44:03;;;;;;;84.15;53.72;;;;;;;;;;4811013;29;20126;-78
2022/03/21 01:46:29;;;;;;;86.28;54.20;;;;;;;;;;4827324;29;20482;-74
2022/03/21 01:48:56;;;;;;;77.47;51.65;;;;;;;;;;4827253;29;20072;-74
2022/03/21 01:51:23;;;;;;;80.78;51.78;;;;;;;;;;4827535;29;20137;-74
2022/03/21 01:56:48;;;;;;;85.63;51.25;;;;;;;;;;4804092;29;20061;-74
2022/03/21 01:59:14;;;;;;;87.53;53.72;;;;;;;;;;4825984;29;20172;-74
2022/03/21 02:01:41;;;;;;;82.03;51.67;;;;;;;;;;4811107;29;20061;-74
2022/03/21 02:04:07;;;;;;;76.78;49.75;;;;;;;;;;4825842;29;20526;-74
2022/03/21 02:06:34;;;;;;;79.28;49.80;;;;;;;;;;4810925;29;20398;-74
2022/03/21 02:09:01;;;;;;;76.88;49.38;;;;;;;;;;4825590;29;20438;-75
2022/03/21 02:11:28;;;;;;;81.25;50.72;;;;;;;;;;4826259;29;20137;-74
2022/03/21 02:13:54;;;;;;;84.95;50.92;;;;;;;;;;4825409;29;20405;-74
2022/03/21 02:16:21;;;;;;;85.75;51.45;;;;;;;;;;4811067;29;20054;-74
2022/03/21 02:18:48;;;;;;;78.88;49.92;;;;;;;;;;4826994;29;20452;-74
2022/03/21 02:21:23;;;;;;;80.50;50.25;;;;;;;;;;4827024;29;20053;-74
2022/03/21 02:23:53;;;;;;;82.45;50.63;;;;;;;;;;4826014;29;20061;-74
2022/03/21 02:26:19;;;;;;;75.22;48.78;;;;;;;;;;4810860;29;20092;-75
2022/03/21 02:28:46;;;;;;;84.18;49.25;;;;;;;;;;4824899;29;20042;-74
2022/03/21 02:31:13;;;;;;;80.40;46.60;;;;;;;;;;4825372;29;20062;-78
2022/03/21 02:33:40;;;;;;;76.10;46.38;;;;;;;;;;4825121;29;20054;-74
2022/03/21 02:36:06;;;;;;;76.93;46.85;;;;;;;;;;4809551;29;20490;-75
2022/03/21 02:38:33;;;;;;;80.68;46.70;;;;;;;;;;4825253;29;20490;-74
2022/03/21 02:40:59;;;;;;;67.95;42.95;;;;;;;;;;4824770;29;20136;-75
2022/03/21 02:43:25;;;;;;;76.18;47.42;;;;;;;;;;4825718;29;20053;-74
2022/03/21 02:45:51;;;;;;;71.32;44.33;;;;;;;;;;4825227;29;20046;-75
2022/03/21 02:48:19;;;;;;;83.60;47.40;;;;;;;;;;4810830;29;20198;-75
2022/03/21 02:51:11;;;;;;;75.25;44.65;;;;;;;;;;4825218;29;20068;-75
2022/03/21 02:53:38;;;;;;;73.28;43.95;;;;;;;;;;4823395;29;20152;-74
2022/03/21 02:56:04;;;;;;;83.40;44.40;;;;;;;;;;4811102;29;20205;-74
2022/03/21 02:58:30;;;;;;;67.18;42.90;;;;;;;;;;4824196;29;20695;-75
2022/03/21 03:01:06;;;;;;;73.63;42.95;;;;;;;;;;4809665;29;20054;-74
2022/03/21 03:03:32;;;;;;;72.15;44.22;;;;;;;;;;4824849;29;20368;-79
2022/03/21 03:05:58;;;;;;;87.13;47.50;;;;;;;;;;4809805;29;20057;-74
2022/03/21 03:08:24;;;;;;;75.45;43.72;;;;;;;;;;4825132;29;20148;-74
2022/03/21 03:10:50;;;;;;;80.00;44.95;;;;;;;;;;4825227;29;20106;-79
2022/03/21 03:13:16;;;;;;;82.00;46.63;;;;;;;;;;4825230;29;20081;-74
2022/03/21 03:15:42;;;;;;;78.28;45.10;;;;;;;;;;4809657;29;20463;-76
2022/03/21 03:18:08;;;;;;;84.68;45.47;;;;;;;;;;4809635;29;20058;-74
2022/03/21 03:20:34;;;;;;;75.15;45.72;;;;;;;;;;4810193;29;20409;-74
2022/03/21 03:23:02;;;;;;;80.05;44.42;;;;;;;;;;4809422;29;20368;-74
2022/03/21 03:25:28;;;;;;;80.47;44.45;;;;;;;;;;4825907;29;20580;-73
2022/03/21 03:27:54;;;;;;;80.25;43.58;;;;;;;;;;4810870;29;20151;-74
2022/03/21 03:30:20;;;;;;;73.07;42.10;;;;;;;;;;4826074;29;20046;-72
2022/03/21 03:32:47;;;;;;;74.72;42.13;;;;;;;;;;4808823;29;20436;-73
2022/03/21 03:35:14;;;;;;;79.53;42.60;;;;;;;;;;4808909;29;20103;-74
2022/03/21 03:37:40;;;;;;;71.32;41.53;;;;;;;;;;4824700;29;20061;-73
2022/03/21 03:40:06;;;;;;;72.55;40.25;;;;;;;;;;4824238;29;20086;-73
2022/03/21 03:42:32;;;;;;;67.10;36.90;;;;;;;;;;4824959;29;20098;-73
2022/03/21 03:44:59;;;;;;;77.63;39.30;;;;;;;;;;4809162;29;20050;-74
2022/03/21 03:47:25;;;;;;;65.05;37.58;;;;;;;;;;4809743;29;20569;-74
2022/03/21 03:49:51;;;;;;;74.93;38.10;;;;;;;;;;4824607;29;20054;-73
2022/03/21 03:52:17;;;;;;;65.53;36.95;;;;;;;;;;4824105;29;20524;-73
2022/03/21 03:54:43;;;;;;;63.80;35.55;;;;;;;;;;4825138;29;20490;-73
2022/03/21 03:57:11;;;;;;;60.70;33.92;;;;;;;;;;4825548;29;20049;-73
2022/03/21 03:59:37;;;;;;;61.65;34.33;;;;;;;;;;4824713;29;20062;-73
2022/03/21 04:02:03;;;;;;;56.67;30.95;;;;;;;;;;4824123;29;20050;-73
2022/03/21 04:04:30;;;;;;;48.10;30.15;;;;;;;;;;4809554;29;20103;-77
2022/03/21 04:06:56;;;;;;;57.03;31.98;;;;;;;;;;4823881;29;20447;-73
2022/03/21 04:09:22;;;;;;;59.60;32.20;;;;;;;;;;4824718;29;20232;-73
2022/03/21 04:11:48;;;;;;;53.22;31.83;;;;;;;;;;4824265;29;20395;-73
2022/03/21 04:14:14;;;;;;;43.95;27.85;;;;;;;;;;4824475;29;20485;-75
2022/03/21 04:16:44;;;;;;;51.97;31.50;;;;;;;;;;4823920;29;20053;-73
2022/03/21 04:19:10;;;;;;;52.80;30.67;;;;;;;;;;4823876;29;20145;-73
2022/03/21 04:21:36;;;;;;;45.83;27.50;;;;;;;;;;4824400;29;20130;-74
2022/03/21 04:24:02;;;;;;;50.90;29.15;;;;;;;;;;4824450;29;20490;-75
2022/03/21 04:26:28;;;;;;;46.97;28.38;;;;;;;;;;4825587;29;20050;-73
2022/03/21 04:28:55;;;;;;;44.50;26.63;;;;;;;;;;4824643;29;20050;-74
2022/03/21 04:31:21;;;;;;;49.08;28.08;;;;;;;;;;4824183;29;20057;-74
2022/03/21 04:33:47;;;;;;;50.58;27.98;;;;;;;;;;4824111;29;20062;-74
2022/03/21 04:36:14;;;;;;;51.58;28.08;;;;;;;;;;4825135;29;20494;-74
2022/03/21 04:38:40;;;;;;;54.08;29.45;;;;;;;;;;4825354;29;20058;-74
2022/03/21 04:41:06;;;;;;;42.90;26.30;;;;;;;;;;4824149;29;20042;-74
2022/03/21 04:43:33;;;;;;;45.70;26.42;;;;;;;;;;4824349;29;20494;-76
2022/03/21 04:45:59;;;;;;;51.28;27.10;;;;;;;;;;4808211;29;20057;-74
2022/03/21 04:48:25;;;;;;;47.22;26.15;;;;;;;;;;4824181;29;20054;-74
2022/03/21 04:50:52;;;;;;;51.83;27.58;;;;;;;;;;4840401;29;20068;-74
2022/03/21 04:53:18;;;;;;;41.97;24.63;;;;;;;;;;4812108;29;20065;-74
2022/03/21 04:55:44;;;;;;;49.78;27.08;;;;;;;;;;4828827;29;20058;-76
2022/03/21 04:58:11;;;;;;;41.75;25.23;;;;;;;;;;4828541;29;20058;-74
2022/03/21 05:00:38;;;;;;;42.05;24.50;;;;;;;;;;4812181;29;20085;-74
2022/03/21 05:03:07;;;;;;;46.65;24.98;;;;;;;;;;4811938;29;20504;-74
2022/03/21 05:05:37;;;;;;;43.08;25.17;;;;;;;;;;4828011;29;20132;-74
2022/03/21 05:08:03;;;;;;;47.10;24.83;;;;;;;;;;4826785;29;20079;-75
2022/03/21 05:10:30;;;;;;;48.13;26.98;;;;;;;;;;4826998;29;20054;-75
2022/03/21 05:12:57;;;;;;;41.47;24.50;;;;;;;;;;4826966;29;20042;-75
2022/03/21 05:15:23;;;;;;;48.60;26.75;;;;;;;;;;4812297;29;20375;-75
2022/03/21 05:17:51;;;;;;;43.53;25.08;;;;;;;;;;4827324;29;20443;-74
2022/03/21 05:20:17;;;;;;;45.53;24.67;;;;;;;;;;4826140;29;20092;-75
2022/03/21 05:22:44;;;;;;;44.42;23.88;;;;;;;;;;4812042;29;20141;-75
2022/03/21 05:30:58;;;;;;;47.70;25.17;;;;;;;;;;4827100;29;20057;-75
2022/03/21 05:36:09;;;;;;;47.83;25.48;;;;;;;;;;4814689;29;20058;-75
2022/03/21 05:38:35;;;;;;;43.53;25.90;;;;;;;;;;4827777;29;20444;-75
2022/03/21 05:41:01;;;;;;;48.97;26.92;;;;;;;;;;4825326;29;20412;-75
2022/03/21 05:43:29;;;;;;;47.05;25.55;;;;;;;;;;4826210;29;20046;-75
2022/03/21 05:45:55;;;;;;;39.88;25.10;;;;;;;;;;4811482;29;20501;-77
2022/03/21 05:51:07;;;;;;;46.10;24.02;;;;;;;;;;4825716;29;20191;-78
2022/03/21 05:53:34;;;;;;;42.67;24.65;;;;;;;;;;4826052;29;20042;-77
2022/03/21 05:56:00;;;;;;;48.13;26.83;;;;;;;;;;4811006;29;20144;-79
2022/03/21 05:58:26;;;;;;;41.55;23.83;;;;;;;;;;4825891;29;20065;-77
2022/03/21 06:00:53;;;;;;;61.72;27.60;;;;;;;;;;4811669;29;20046;-76
2022/03/21 06:03:19;;;;;;;46.78;26.27;;;;;;;;;;4810575;29;20056;-75
2022/03/21 06:05:45;;;;;;;46.90;26.15;;;;;;;;;;4810415;29;20046;-76
2022/03/21 06:08:11;;;;;;;57.60;27.90;;;;;;;;;;4823933;29;20049;-77
2022/03/21 06:10:38;;;;;;;53.35;27.98;;;;;;;;;;4808354;29;20455;-74
2022/03/21 06:13:08;;;;;;;42.17;25.15;;;;;;;;;;4808863;29;20049;-76
2022/03/21 06:15:37;;;;;;;51.50;26.35;;;;;;;;;;4823672;29;20050;-76
2022/03/21 06:18:10;;;;;;;49.10;27.38;;;;;;;;;;4807668;29;20098;-78
2022/03/21 06:20:36;;;;;;;41.80;25.50;;;;;;;;;;4808211;29;20050;-78
2022/03/21 06:23:03;;;;;;;39.20;24.60;;;;;;;;;;4822915;29;20046;-75
2022/03/21 06:25:29;;;;;;;35.63;22.75;;;;;;;;;;4822962;29;20280;-76
2022/03/21 06:27:56;;;;;;;38.15;23.65;;;;;;;;;;4808671;29;20065;-76
2022/03/21 06:30:22;;;;;;;34.55;21.77;;;;;;;;;;4807924;29;20112;-77
2022/03/21 06:32:48;;;;;;;37.83;23.27;;;;;;;;;;4811771;29;20461;-73
2022/03/21 06:35:14;;;;;;;41.03;23.40;;;;;;;;;;4841415;29;20057;-77
2022/03/21 06:37:41;;;;;;;30.52;20.35;;;;;;;;;;4829145;29;20053;-75
2022/03/21 06:40:08;;;;;;;34.28;22.10;;;;;;;;;;4829781;29;20045;-75
2022/03/21 06:42:34;;;;;;;32.35;21.08;;;;;;;;;;4845078;29;20085;-75
2022/03/21 06:45:00;;;;;;;31.23;21.83;;;;;;;;;;4844759;29;20426;-75
2022/03/21 06:47:26;;;;;;;32.40;21.55;;;;;;;;;;4829354;29;20552;-75
2022/03/21 06:49:52;;;;;;;31.35;20.42;;;;;;;;;;4845040;29;20128;-75
2022/03/21 06:52:19;;;;;;;32.75;20.23;;;;;;;;;;4844773;29;20049;-75
2022/03/21 06:54:48;;;;;;;30.05;20.02;;;;;;;;;;4843867;29;20053;-76
2022/03/21 06:57:16;;;;;;;33.35;20.42;;;;;;;;;;4828676;29;20398;-77
2022/03/21 06:59:42;;;;;;;32.30;21.50;;;;;;;;;;4844908;29;20409;-77
2022/03/21 07:02:08;;;;;;;30.85;21.48;;;;;;;;;;4844606;29;20118;-75
2022/03/21 07:04:34;;;;;;;34.13;21.70;;;;;;;;;;4829591;29;20088;-77
2022/03/21 07:07:00;;;;;;;32.33;21.65;;;;;;;;;;4844023;29;20056;-76
2022/03/21 07:09:26;;;;;;;30.52;21.88;;;;;;;;;;4829436;29;20533;-76
2022/03/21 07:11:52;;;;;;;33.40;22.10;;;;;;;;;;4829599;29;20144;-76
2022/03/21 07:14:19;;;;;;;32.58;21.80;;;;;;;;;;4828406;29;20501;-76
2022/03/21 07:16:45;;;;;;;;;;;;;;;;;;4829774;29;20053;-76
2022/03/21 07:19:11;;;;;;;;;;;;;;;;;;4844749;29;19947;-76
2022/03/21 07:21:37;;;;;;;;;;;;;;;;;;4845113;29;20284;-76
2022/03/21 07:24:03;;;;;;;;;;;;;;;;;;4845145;29;19924;-76
2022/03/21 07:26:31;;;;;;;;;;;;;;;;;;4829171;29;20440;-75
2022/03/21 07:28:57;;;;;;;;;;;;;;;;;;4844376;29;19924;-76
2022/03/21 07:31:23;;;;;;;;;;;;;;;;;;4844615;29;19939;-78
2022/03/21 07:33:49;;;;;;;;;;;;;;;;;;4829167;29;19964;-77
2022/03/21 07:36:15;;;;;;;;;;;;;;;;;;4844330;29;20006;-77
2022/03/21 07:38:41;;;;;;;;;;;;;;;;;;4844933;29;19931;-76
2022/03/21 07:41:07;;;;;;;;;;;;;;;;;;4829525;29;19924;-77
2022/03/21 07:43:33;;;;;;;;;;;;;;;;;;4844183;29;20254;-76
2022/03/21 07:48:44;;;;;;;;;;;;;;;;;;4844639;29;19931;-77
2022/03/21 07:51:10;;;;;;;;;;;;;;;;;;4844213;29;20372;-82
2022/03/21 07:53:36;;;;;;;;;;;;;;;;;;4828990;29;19931;-81
2022/03/21 07:56:02;;;;;;;;;;;;;;;;;;4829078;29;19924;-79
2022/03/21 07:58:28;;;;;;;;;;;;;;;;;;4828944;29;19929;-76
2022/03/21 08:00:56;;;;;;;;;;;;;;;;;;4844359;29;20359;-76
2022/03/21 08:03:22;;;;;;;;;;;;;;;;;;4843845;29;19924;-79
2022/03/21 08:05:48;;;;;;;;;;;;;;;;;;4844139;29;19935;-74
2022/03/21 08:08:15;;;;;;;;;;;;;;;;;;4843872;29;19924;-73
2022/03/21 08:10:41;;;;;;;;;;;;;;;;;;4844394;29;19931;-73
2022/03/21 08:13:08;;;;;;;;;;;;;;;;;;4843984;29;19924;-74
2022/03/21 08:15:35;;;;;;;;;;;;;;;;;;4843432;29;20524;-73
2022/03/21 08:18:03;;;;;;;;;;;;;;;;;;4828915;29;19963;-74
2022/03/21 08:20:35;;;;;;;;;;;;;;;;;;4828319;29;20383;-74
2022/03/21 08:23:01;;;;;;;;;;;;;;;;;;4843724;29;20018;-77
2022/03/21 08:25:27;;;;;;;;;;;;;;;;;;4843118;29;20320;-74
2022/03/21 08:27:53;;;;;;;;;;;;;;;;;;4828940;29;19924;-74
2022/03/21 08:30:19;;;;;;;;;;;;;;;;;;4843665;29;19924;-77
2022/03/21 08:32:45;;;;;;;;;;;;;;;;;;4828185;29;19955;-75
2022/03/21 08:35:11;;;;;;;;;;;;;;;;;;4828893;29;19924;-78
2022/03/21 08:37:37;;;;;;;;;;;;;;;;;;4825945;29;19939;-79
2022/03/21 08:40:03;;;;;;;;;;;;;;;;;;4828547;29;19930;-80
2022/03/21 08:42:29;;;;;;;;;;;;;;;;;;4828026;29;19928;-73
2022/03/21 08:44:55;;;;;;;;;;;;;;;;;;4828571;29;19936;-75
2022/03/21 08:47:21;;;;;;;;;;;;;;;;;;4842731;29;19947;-74
2022/03/21 08:49:47;;;;;;;;;;;;;;;;;;4843412;29;19924;-76
2022/03/21 08:52:13;;;;;;;;;;;;;;;;;;4828325;29;19930;-74
2022/03/21 08:54:39;;;;;;;;;;;;;;;;;;4827964;29;19924;-74
2022/03/21 08:57:05;;;;;;;;;;;;;;;;;;4843435;29;19924;-74
2022/03/21 08:59:31;;;;;;;;;;;;;;;;;;4828239;29;20027;-74
2022/03/21 09:01:57;;;;;;;;;;;;;;;;;;4843796;29;19924;-74
2022/03/21 09:04:23;;;;;;;;;;;;;;;;;;4840991;29;19928;-75
2022/03/21 09:06:49;;;;;;;;;;;;;;;;;;4842637;29;20290;-75
2022/03/21 09:09:18;;;;;;;;;;;;;;;;;;4843172;29;20018;-75
2022/03/21 09:11:44;;;;;;;;;;;;;;;;;;4828485;29;19931;-76
2022/03/21 09:14:10;;;;;;;;;;;;;;;;;;4843444;29;20325;-76
2022/03/21 09:16:42;;;;;;;;;;;;;;;;;;4828031;29;19924;-76
2022/03/21 09:19:08;;;;;;;;;;;;;;;;;;4843207;29;20419;-75
2022/03/21 09:21:34;;;;;;;;;;;;;;;;;;4843383;29;19977;-75
2022/03/21 09:23:59;;;;;;;;;;;;;;;;;;4843671;29;20345;-76
2022/03/21 09:26:25;;;;;;;;;;;;;;;;;;4843132;29;20280;-75
2022/03/21 09:28:59;;;;;;;;;;;;;;;;;;4843254;29;19924;-75
2022/03/21 09:31:25;;;;;;;;;;;;;;;;;;4842836;29;20019;-75
2022/03/21 09:33:51;;;;;;;;;;;;;;;;;;4842540;29;20006;-75
2022/03/21 09:36:17;;;;;;;28.73;22.27;;;;;;;;;;4827812;29;19931;-78
2022/03/21 09:38:44;;;;;;;26.52;21.73;;;;;;;;;;4845467;29;20156;-74
2022/03/21 09:41:13;;;;;;;24.25;20.67;;;;;;;;;;4831348;29;20081;-74
2022/03/21 09:43:39;;;;;;;29.60;22.02;;;;;;;;;;4845906;29;20493;-74
2022/03/21 09:46:07;;;;;;;32.30;23.23;;;;;;;;;;4845870;29;20398;-74
2022/03/21 09:48:34;;;;;;;28.38;23.27;;;;;;;;;;4830849;29;20152;-74
2022/03/21 09:51:01;;;;;;;31.35;23.42;;;;;;;;;;4846235;29;20080;-76
2022/03/21 09:53:28;;;;;;;31.13;23.88;;;;;;;;;;4830252;29;20081;-73
2022/03/21 09:55:55;;;;;;;28.08;23.45;;;;;;;;;;4846147;29;20061;-74
2022/03/21 09:58:21;;;;;;;32.85;23.52;;;;;;;;;;4845374;29;20053;-74
2022/03/21 10:00:49;;;;;;;33.25;23.23;;;;;;;;;;4830687;29;20049;-73
2022/03/21 10:03:15;;;;;;;28.60;21.55;;;;;;;;;;4830774;29;20057;-74
2022/03/21 10:05:46;;;;;;;29.92;22.15;;;;;;;;;;4830338;29;20520;-73
2022/03/21 10:08:12;;;;;;;28.83;21.45;;;;;;;;;;4830375;29;20053;-74
2022/03/21 10:10:39;;;;;;;30.20;21.60;;;;;;;;;;4845108;29;20489;-74
2022/03/21 10:13:11;;;;;;;28.92;22.17;;;;;;;;;;4845673;29;20057;-76
2022/03/21 10:15:38;;;;;;;27.98;20.83;;;;;;;;;;4830254;29;20053;-73
2022/03/21 10:18:13;;;;;;;30.83;20.08;;;;;;;;;;4845662;29;20141;-74
2022/03/21 10:20:40;;;;;;;28.73;21.77;;;;;;;;;;4844994;29;20485;-73
2022/03/21 10:23:19;;;;;;;25.60;18.50;;;;;;;;;;4845351;29;20379;-74
2022/03/21 10:25:46;;;;;;;24.42;18.40;;;;;;;;;;4845311;29;20046;-73
2022/03/21 10:28:31;;;;;;;22.85;17.83;;;;;;;;;;4845581;29;20436;-73
2022/03/21 10:30:57;;;;;;;26.63;18.23;;;;;;;;;;4830322;29;20140;-71
2022/03/21 10:33:24;;;;;;;22.15;15.23;;;;;;;;;;4824840;29;20069;-72
2022/03/21 10:35:50;;;;;;;25.77;16.88;;;;;;;;;;4843182;29;20065;-73
2022/03/21 10:38:29;;;;;;;21.52;16.20;;;;;;;;;;4826763;29;20505;-73
2022/03/21 10:40:55;;;;;;;22.48;17.02;;;;;;;;;;4827047;29;20060;-73
2022/03/21 10:43:21;;;;;;;22.02;16.73;;;;;;;;;;4826664;29;20056;-73
2022/03/21 10:45:49;;;;;;;27.30;17.27;;;;;;;;;;4811296;29;20102;-73
2022/03/21 10:48:22;;;;;;;22.15;17.20;;;;;;;;;;4826008;29;20459;-73
2022/03/21 10:50:55;;;;;;;23.20;16.30;;;;;;;;;;4826551;29;20053;-72
2022/03/21 10:53:25;;;;;;;22.65;17.40;;;;;;;;;;4826524;29;20050;-73
2022/03/21 10:55:54;;;;;;;24.65;16.52;;;;;;;;;;4826776;29;20057;-73
2022/03/21 10:58:33;;;;;;;23.83;16.92;;;;;;;;;;4826180;29;20058;-73
2022/03/21 11:01:19;;;;;;;22.63;15.93;;;;;;;;;;4826581;29;20058;-73
2022/03/21 11:03:49;;;;;;;21.60;15.82;;;;;;;;;;4825976;29;20096;-73
2022/03/21 11:06:15;;;;;;;20.48;14.77;;;;;;;;;;4810997;29;20152;-74
2022/03/21 11:08:41;;;;;;;19.25;15.38;;;;;;;;;;4825991;29;20367;-72
2022/03/21 11:11:09;;;;;;;21.98;16.80;;;;;;;;;;4811205;29;20604;-73
2022/03/21 11:13:37;;;;;;;24.35;17.45;;;;;;;;;;4825850;29;20402;-72
2022/03/21 11:16:03;;;;;;;20.33;16.33;;;;;;;;;;4810831;29;20061;-73
2022/03/21 11:18:29;;;;;;;24.23;17.23;;;;;;;;;;4841979;29;20050;-73
2022/03/21 11:20:59;;;;;;;23.35;16.90;;;;;;;;;;4825873;29;20093;-72
2022/03/21 11:23:26;;;;;;;25.65;17.55;;;;;;;;;;4825539;29;20089;-74
2022/03/21 11:26:04;;;;;;;24.67;16.02;;;;;;;;;;4810972;29;20054;-73
2022/03/21 11:28:49;;;;;;;24.15;16.45;;;;;;;;;;4826136;29;20085;-73
2022/03/21 11:31:27;;;;;;;24.25;16.63;;;;;;;;;;4825828;29;20065;-73
2022/03/21 11:34:22;;;;;;;21.13;16.73;;;;;;;;;;4827441;29;20069;-73
2022/03/21 11:36:55;;;;;;;27.73;16.85;;;;;;;;;;4761821;29;20484;-74
2022/03/21 11:39:21;;;;;;;24.20;16.70;;;;;;;;;;4826026;29;20054;-75
2022/03/21 11:42:01;;;;;;;23.75;17.83;;;;;;;;;;4810373;29;20330;-74
2022/03/21 11:44:28;;;;;;;20.20;16.38;;;;;;;;;;4825906;29;20050;-75
2022/03/21 11:46:54;;;;;;;23.83;17.02;;;;;;;;;;4825400;29;20069;-75
2022/03/21 11:49:20;;;;;;;20.88;16.50;;;;;;;;;;4810539;29;20145;-73
2022/03/21 11:51:56;;;;;;;22.42;16.42;;;;;;;;;;4825351;29;20054;-74
2022/03/21 11:54:29;;;;;;;24.40;16.73;;;;;;;;;;4825344;29;20057;-72
2022/03/21 11:56:55;;;;;;;23.20;17.42;;;;;;;;;;4825472;29;20045;-73
2022/03/21 11:59:33;;;;;;;26.95;17.85;;;;;;;;;;4825329;29;20435;-71
2022/03/21 12:01:59;;;;;;;24.63;16.55;;;;;;;;;;4825618;29;20042;-72
2022/03/21 12:04:25;;;;;;;24.33;16.55;;;;;;;;;;4825507;29;20113;-73
2022/03/21 12:06:52;;;;;;;23.15;16.83;;;;;;;;;;4824797;29;20054;-72
2022/03/21 12:09:19;;;;;;;26.40;16.92;;;;;;;;;;4810125;29;20058;-73
2022/03/21 12:11:49;;;;;;;22.30;17.00;;;;;;;;;;4822926;29;20113;-71
2022/03/21 12:14:21;;;;;;;24.42;16.88;;;;;;;;;;4809630;29;20050;-73
2022/03/21 12:16:47;;;;;;;24.88;17.35;;;;;;;;;;4824782;29;20065;-73
2022/03/21 12:19:13;;;;;;;22.25;16.23;;;;;;;;;;4809454;29;20093;-73
2022/03/21 12:21:39;;;;;;;23.00;16.60;;;;;;;;;;4824608;29;20046;-72
2022/03/21 12:24:13;;;;;;;22.90;16.45;;;;;;;;;;4825081;29;20102;-73
2022/03/21 12:26:47;;;;;;;20.05;15.75;;;;;;;;;;4824924;29;20184;-72
2022/03/21 12:29:32;;;;;;;24.67;16.50;;;;;;;;;;4841324;29;20485;-74
2022/03/21 12:32:17;;;;;;;24.95;15.68;;;;;;;;;;4823799;29;20202;-73
2022/03/21 12:34:44;;;;;;;20.55;15.60;;;;;;;;;;4808487;29;20061;-74
2022/03/21 12:37:24;;;;;;;23.45;15.07;;;;;;;;;;4824599;29;20050;-75
2022/03/21 12:39:50;;;;;;;22.20;14.98;;;;;;;;;;4808947;29;20050;-74
2022/03/21 12:42:18;;;;;;;19.52;14.90;;;;;;;;;;4824774;29;20046;-74
2022/03/21 12:44:44;;;;;;;19.23;15.00;;;;;;;;;;4809127;29;20054;-74
2022/03/21 12:47:11;;;;;;;19.73;14.18;;;;;;;;;;4825076;29;20050;-74
2022/03/21 12:49:47;;;;;;;18.52;13.90;;;;;;;;;;4824609;29;20096;-75
2022/03/21 12:52:24;;;;;;;20.42;13.45;;;;;;;;;;4824372;29;20129;-73
2022/03/21 12:54:51;;;;;;;23.15;15.27;;;;;;;;;;4823916;29;20042;-73
2022/03/21 12:57:17;;;;;;;21.98;14.70;;;;;;;;;;4824871;29;20054;-73
2022/03/21 12:59:43;;;;;;;18.60;13.90;;;;;;;;;;4824190;29;20046;-74
2022/03/21 13:02:22;;;;;;;21.67;14.18;;;;;;;;;;4822201;29;20145;-80
2022/03/21 13:10:32;;;;;;;22.80;14.45;;;;;;;;;;4824459;29;20060;-74
2022/03/21 13:13:00;;;;;;;20.52;14.70;;;;;;;;;;4826699;29;20136;-76
2022/03/21 13:15:27;;;;;;;20.40;14.35;;;;;;;;;;4828241;29;20391;-74
2022/03/21 13:18:03;;;;;;;17.65;14.13;;;;;;;;;;4812785;29;20050;-74
2022/03/21 13:20:38;;;;;;;21.08;14.07;;;;;;;;;;4828221;29;20146;-74
2022/03/21 13:23:05;;;;;;;20.23;14.40;;;;;;;;;;4844373;29;20049;-74
2022/03/21 13:25:32;;;;;;;20.67;15.00;;;;;;;;;;4828038;29;20045;-74
2022/03/21 13:28:08;;;;;;;23.65;14.23;;;;;;;;;;4827698;29;20053;-74
2022/03/21 13:30:35;;;;;;;21.42;14.02;;;;;;;;;;4827903;29;20081;-74
2022/03/21 13:33:01;;;;;;;17.40;13.80;;;;;;;;;;4827728;29;20050;-74
2022/03/21 13:35:27;;;;;;;19.23;15.00;;;;;;;;;;4829415;29;20077;-74
2022/03/21 13:38:04;;;;;;;24.95;14.77;;;;;;;;;;4827239;29;20102;-75
2022/03/21 13:40:30;;;;;;;25.25;15.43;;;;;;;;;;4827826;29;20152;-75
2022/03/21 13:43:15;;;;;;;22.23;15.57;;;;;;;;;;4827522;29;20106;-75
2022/03/21 13:45:44;;;;;;;23.33;15.30;;;;;;;;;;4812247;29;20093;-75
2022/03/21 13:48:10;;;;;;;25.42;14.75;;;;;;;;;;4812487;29;20443;-74
2022/03/21 13:50:39;;;;;;;20.67;15.35;;;;;;;;;;4826907;29;20096;-77
2022/03/21 13:53:27;;;;;;;22.58;15.82;;;;;;;;;;4827730;29;20085;-74
2022/03/21 13:55:54;;;;;;;26.90;16.48;;;;;;;;;;4843368;29;20152;-76
2022/03/21 13:58:28;;;;;;;22.67;15.60;;;;;;;;;;4827445;29;20054;-74
2022/03/21 14:00:54;;;;;;;;;;;;;;;;;;4827193;29;20226;-75
2022/03/21 14:03:50;;;;;;;21.73;14.70;;;;;;;;;;4827096;29;20391;-75
2022/03/21 14:06:16;;;;;;;24.92;15.48;;;;;;;;;;4815608;29;20066;-74
2022/03/21 14:08:42;;;;;;;22.35;15.10;;;;;;;;;;4812316;29;20052;-74
2022/03/21 14:11:14;;;;;;;25.85;16.40;;;;;;;;;;4812051;29;20098;-76
2022/03/21 14:13:41;;;;;;;20.80;15.52;;;;;;;;;;4826855;29;20050;-76
2022/03/21 14:16:08;;;;;;;22.20;15.10;;;;;;;;;;4811336;29;20145;-76
2022/03/21 14:18:36;;;;;;;25.63;15.52;;;;;;;;;;4826059;29;20061;-76
2022/03/21 14:21:02;;;;;;;23.05;15.20;;;;;;;;;;4810877;29;20107;-76
2022/03/21 14:23:29;;;;;;;21.20;16.00;;;;;;;;;;4825484;29;20054;-75
2022/03/21 14:28:40;;;;;;;22.05;15.48;;;;;;;;;;4813948;29;20475;-80
2022/03/21 14:31:07;;;;;;;23.02;16.30;;;;;;;;;;4812133;29;20060;-76
2022/03/21 14:33:33;;;;;;;27.80;15.80;;;;;;;;;;4827669;29;20042;-76
2022/03/21 14:36:00;;;;;;;22.48;16.25;;;;;;;;;;4829199;29;20050;-76
2022/03/21 14:38:26;;;;;;;22.45;16.38;;;;;;;;;;4845119;29;20061;-74
2022/03/21 14:40:52;;;;;;;29.45;15.93;;;;;;;;;;4844792;29;20501;-76
2022/03/21 14:43:18;;;;;;;22.90;15.68;;;;;;;;;;4844661;29;20441;-78
2022/03/21 14:45:44;;;;;;;22.65;15.10;;;;;;;;;;4828881;29;20061;-80
2022/03/21 14:48:11;;;;;;;20.77;15.27;;;;;;;;;;4845134;29;20466;-77
2022/03/21 14:50:37;;;;;;;24.83;15.65;;;;;;;;;;4829848;29;20049;-78
2022/03/21 14:53:03;;;;;;;26.17;16.10;;;;;;;;;;4844655;29;20394;-79
2022/03/21 14:55:29;;;;;;;22.05;15.93;;;;;;;;;;4845331;29;20502;-77
2022/03/21 14:57:56;;;;;;;24.85;16.05;;;;;;;;;;4829693;29;20054;-77
2022/03/21 15:00:23;;;;;;;22.90;15.30;;;;;;;;;;4829736;29;20124;-76
2022/03/21 15:02:49;;;;;;;27.23;16.73;;;;;;;;;;4829506;29;20139;-79
2022/03/21 15:05:15;;;;;;;21.80;15.32;;;;;;;;;;4845250;29;20141;-78
2022/03/21 15:07:42;;;;;;;23.55;14.25;;;;;;;;;;4829296;29;20046;-78